Time;durP1;ratioP1;P1;durP2;ratioP2;P2;SDS_P1;SDS_P2;PMS_P1;PMS_P2;Temp;Humidity;BMP_temperature;BMP_pressure;BME280_temperature;BME280_humidity;BME280_pressure;Samples;Min_cycle;Max_cycle;Signal;HPM_P1;HPM_P2
2022/08/18 00:02:05;;;;;;;34.72;19.67;;;;;;;19.01;88.09;99896.38;5035104;28;20033;-77
2022/08/18 00:04:31;;;;;;;35.95;20.42;;;;;;;18.91;88.63;99897.97;5034001;28;20112;-77
2022/08/18 00:06:57;;;;;;;34.35;18.83;;;;;;;18.88;89.01;99903.50;5017213;28;20025;-77
2022/08/18 00:09:23;;;;;;;38.38;21.77;;;;;;;18.77;89.54;99906.25;5034864;28;20491;-77
2022/08/18 00:11:48;;;;;;;39.17;21.58;;;;;;;18.80;89.76;99899.94;5034494;28;20064;-77
2022/08/18 00:14:16;;;;;;;;;;;;;;;18.81;89.73;99901.53;5035472;28;20040;-77
2022/08/18 00:16:42;;;;;;;38.83;19.75;;;;;;;18.82;89.63;99905.88;5034234;28;19919;-77
2022/08/18 00:19:08;;;;;;;42.67;22.63;;;;;;;18.71;90.53;99910.59;5035054;28;20104;-77
2022/08/18 00:21:33;;;;;;;;;;;;;;;18.64;90.34;99910.56;5035283;28;20045;-77
2022/08/18 00:23:59;;;;;;;40.13;20.83;;;;;;;18.70;90.21;99909.03;5034647;28;20371;-77
2022/08/18 00:26:24;;;;;;;36.13;19.55;;;;;;;18.64;90.41;99910.56;5034921;28;20072;-77
2022/08/18 00:28:49;;;;;;;35.25;19.58;;;;;;;19.08;87.63;99912.13;5034922;28;20033;-77
2022/08/18 00:31:14;;;;;;;39.72;21.15;;;;;;;18.91;88.00;99914.50;5035040;28;20082;-77
2022/08/18 00:33:42;;;;;;;39.88;20.75;;;;;;;18.75;89.42;99914.13;5034853;28;20064;-77
2022/08/18 00:36:08;;;;;;;42.28;22.10;;;;;;;18.54;90.57;99916.84;5034503;28;20040;-77
2022/08/18 00:38:33;;;;;;;42.53;22.98;;;;;;;18.51;90.78;99917.66;5034219;28;20026;-77
2022/08/18 00:41:00;;;;;;;40.60;21.73;;;;;;;18.41;91.58;99915.66;5034151;28;20085;-77
2022/08/18 00:43:45;;;;;;;45.15;23.98;;;;;;;18.43;92.15;99916.06;5034468;28;20029;-77
2022/08/18 00:46:19;;;;;;;43.95;23.45;;;;;;;18.37;92.54;99914.88;5034161;28;20060;-77
2022/08/18 00:48:46;;;;;;;44.20;23.58;;;;;;;18.33;92.69;99910.16;5034199;28;20144;-77
2022/08/18 00:51:19;;;;;;;48.05;24.42;;;;;;;18.28;93.04;99915.25;5034053;28;20021;-77
2022/08/18 00:53:55;;;;;;;55.67;24.95;;;;;;;18.29;93.42;99919.56;5034512;28;20041;-77
2022/08/18 00:56:34;;;;;;;46.80;24.00;;;;;;;18.27;93.29;99917.22;5016335;28;20472;-78
2022/08/18 00:59:25;;;;;;;51.33;25.15;;;;;;;18.27;93.54;99908.16;5034333;28;20056;-78
2022/08/18 01:01:54;;;;;;;47.47;24.10;;;;;;;18.30;93.10;99916.44;5034302;28;20065;-78
2022/08/18 01:04:26;;;;;;;46.63;23.02;;;;;;;18.66;91.15;99908.25;5033904;28;20132;-78
2022/08/18 01:07:00;;;;;;;45.97;23.98;;;;;;;18.37;92.77;99910.16;5033580;28;20037;-78
2022/08/18 01:09:26;;;;;;;53.05;25.45;;;;;;;18.47;91.63;99900.31;5033818;28;20038;-78
2022/08/18 01:11:51;;;;;;;49.38;24.70;;;;;;;18.43;92.37;99905.03;5033508;28;20487;-79
2022/08/18 01:14:18;;;;;;;48.15;24.65;;;;;;;18.26;93.45;99907.38;5033509;28;20168;-79
2022/08/18 01:22:34;;;;;;;45.80;24.15;;;;;;;18.27;93.06;99891.63;5033285;28;19916;-78
2022/08/18 01:27:45;;;;;;;46.33;22.27;;;;;;;18.45;91.56;99888.88;5033258;28;20508;-78
2022/08/18 01:30:13;;;;;;;;;;;;;;;18.47;90.96;99887.31;5033932;28;20041;-78
2022/08/18 01:32:39;;;;;;;;;;;;;;;18.27;92.94;99892.41;5033825;28;19955;-78
2022/08/18 01:35:07;;;;;;;44.30;22.02;;;;;;;18.36;92.71;99888.50;5033379;28;19913;-78
2022/08/18 01:37:34;;;;;;;46.13;23.30;;;;;;;18.45;91.76;99886.13;5032931;28;20475;-78
2022/08/18 01:39:59;;;;;;;44.08;24.20;;;;;;;18.29;93.05;99892.81;5033096;28;20029;-77
2022/08/18 01:42:25;;;;;;;44.42;22.77;;;;;;;18.70;90.99;99891.69;5032879;28;20033;-78
2022/08/18 01:44:50;;;;;;;46.55;24.27;;;;;;;18.34;92.14;99897.16;5032806;28;20120;-78
2022/08/18 01:47:17;;;;;;;44.55;23.48;;;;;;;18.43;91.43;99899.50;5015374;28;20121;-78
2022/08/18 01:49:43;;;;;;;43.78;22.70;;;;;;;18.17;92.17;99903.44;5033073;28;20049;-78
2022/08/18 01:52:14;;;;;;;45.13;23.00;;;;;;;18.01;93.18;99912.06;5033141;28;20037;-78
2022/08/18 01:54:41;;;;;;;43.83;22.48;;;;;;;18.05;92.67;99904.59;5032678;28;20329;-78
2022/08/18 01:57:13;;;;;;;47.20;21.85;;;;;;;18.06;92.57;99906.16;5032989;28;20033;-77
2022/08/18 01:59:39;;;;;;;47.67;23.25;;;;;;;17.98;93.46;99918.34;5032945;28;20112;-77
2022/08/18 02:02:05;;;;;;;47.33;22.33;;;;;;;18.11;93.10;99914.03;5032462;28;20045;-77
2022/08/18 02:04:33;;;;;;;44.53;22.35;;;;;;;18.01;93.62;99912.84;5032785;28;20029;-77
2022/08/18 02:07:01;;;;;;;46.63;24.17;;;;;;;17.94;94.29;99909.25;5032773;28;20040;-77
2022/08/18 02:09:27;;;;;;;44.80;23.48;;;;;;;17.84;94.91;99912.78;5032472;28;20037;-77
2022/08/18 02:11:53;;;;;;;51.13;23.83;;;;;;;17.77;95.93;99923.75;5032485;28;20036;-78
2022/08/18 02:14:18;;;;;;;53.00;24.00;;;;;;;17.79;95.88;99915.91;5032761;28;20383;-78
2022/08/18 02:16:43;;;;;;;48.97;25.02;;;;;;;17.77;95.80;99913.53;5032625;28;20029;-78
2022/08/18 02:19:08;;;;;;;54.50;24.90;;;;;;;17.91;94.54;99921.06;5032640;28;20029;-78
2022/08/18 02:21:34;;;;;;;52.92;23.73;;;;;;;17.81;95.72;99921.84;5032565;28;20033;-78
2022/08/18 02:23:59;;;;;;;;;;;;;;;17.72;96.30;99928.47;5033036;28;20025;-78
2022/08/18 02:26:25;;;;;;;53.35;24.73;;;;;;;17.69;96.58;99920.22;5032464;28;19921;-77
2022/08/18 02:28:51;;;;;;;54.90;22.35;;;;;;;17.90;95.23;99914.78;5037241;28;20055;-78
2022/08/18 02:31:18;;;;;;;;;;;;;;;18.01;93.82;99906.53;5039697;28;20029;-78
2022/08/18 02:33:44;;;;;;;;;;;;;;;17.91;94.53;99907.28;5039542;28;20363;-78
2022/08/18 02:36:10;;;;;;;50.70;23.70;;;;;;;17.73;95.74;99908.03;5038966;28;19945;-78
2022/08/18 02:38:36;;;;;;;48.53;22.92;;;;;;;17.64;95.88;99904.03;5038985;28;20483;-78
2022/08/18 02:41:08;;;;;;;45.42;22.40;;;;;;;17.67;95.63;99900.50;5039165;28;20116;-78
2022/08/18 02:43:34;;;;;;;50.40;24.65;;;;;;;17.71;95.39;99901.34;5039074;28;20530;-79
2022/08/18 02:46:00;;;;;;;47.30;20.88;;;;;;;17.75;95.30;99893.88;5039043;28;20030;-78
2022/08/18 02:48:34;;;;;;;48.33;22.58;;;;;;;17.89;94.49;99887.63;5038520;28;20080;-78
2022/08/18 02:51:02;;;;;;;58.63;25.50;;;;;;;17.86;94.01;99893.91;5039046;28;20436;-78
2022/08/18 02:53:28;;;;;;;53.38;24.75;;;;;;;17.78;94.60;99897.81;5038817;28;20040;-78
2022/08/18 02:55:54;;;;;;;51.15;24.27;;;;;;;17.84;93.83;99896.25;5021224;28;20333;-78
2022/08/18 02:58:20;;;;;;;54.00;25.42;;;;;;;17.70;94.74;99903.28;5038833;28;20061;-78
2022/08/18 03:00:46;;;;;;;53.08;23.77;;;;;;;17.76;94.12;99900.94;5021013;28;20067;-78
2022/08/18 03:03:12;;;;;;;55.15;25.70;;;;;;;17.67;94.83;99903.25;5038490;28;20034;-78
2022/08/18 03:05:38;;;;;;;65.15;26.70;;;;;;;17.62;94.69;99900.84;5038859;28;20052;-78
2022/08/18 03:08:03;;;;;;;56.50;25.98;;;;;;;17.69;94.70;99906.44;5038740;28;20034;-78
2022/08/18 03:10:29;;;;;;;63.38;25.23;;;;;;;17.61;94.93;99900.06;5038499;28;20041;-78
2022/08/18 03:12:54;;;;;;;61.92;27.35;;;;;;;17.58;94.89;99909.09;5038530;28;20025;-78
2022/08/18 03:15:20;;;;;;;61.42;26.20;;;;;;;17.56;95.11;99908.72;5039054;28;20445;-78
2022/08/18 03:17:45;;;;;;;;;;;;;;;17.64;94.89;99910.34;5038865;28;20025;-78
2022/08/18 03:20:10;;;;;;;57.80;23.70;;;;;;;17.63;94.69;99907.94;5038393;28;20363;-79
2022/08/18 03:22:36;;;;;;;60.53;25.13;;;;;;;17.57;95.04;99909.50;5038795;28;20033;-79
2022/08/18 03:25:02;;;;;;;60.42;25.52;;;;;;;17.82;93.39;99904.91;5038669;28;20025;-78
2022/08/18 03:27:27;;;;;;;60.88;25.63;;;;;;;17.67;94.20;99903.25;5038712;28;20033;-79
2022/08/18 03:29:52;;;;;;;;;;;;;;;17.83;93.28;99903.75;5039462;28;20033;-79
2022/08/18 03:32:18;;;;;;;55.85;23.85;;;;;;;17.77;93.49;99902.53;5038635;28;19913;-79
2022/08/18 03:34:43;;;;;;;;;;;;;;;17.71;93.91;99893.84;5038724;28;20032;-79
2022/08/18 03:37:09;;;;;;;58.83;24.30;;;;;;;17.76;94.01;99894.66;5038822;28;19992;-79
2022/08/18 03:39:34;;;;;;;59.55;25.67;;;;;;;17.85;93.02;99895.09;5036145;28;20052;-79
2022/08/18 03:42:00;;;;;;;;;;;;;;;17.79;93.80;99893.88;5035673;28;20029;-79
2022/08/18 03:44:26;;;;;;;65.93;26.48;;;;;;;17.71;94.36;99899.38;5017564;28;19920;-79
2022/08/18 03:46:52;;;;;;;63.47;27.85;;;;;;;17.75;94.03;99902.13;5035412;28;20037;-79
2022/08/18 03:49:19;;;;;;;68.55;26.98;;;;;;;17.56;95.56;99902.41;5035237;28;20050;-79
2022/08/18 03:51:45;;;;;;;69.57;28.73;;;;;;;17.74;93.82;99895.81;5035211;28;20464;-79
2022/08/18 03:54:12;;;;;;;62.80;26.50;;;;;;;17.62;94.84;99901.66;5035327;28;20030;-79
2022/08/18 03:56:39;;;;;;;60.05;26.15;;;;;;;17.76;94.06;99895.44;5035193;28;20128;-78
2022/08/18 03:59:10;;;;;;;62.42;26.00;;;;;;;17.77;94.00;99904.50;5035159;28;20113;-78
2022/08/18 04:01:39;;;;;;;63.03;26.23;;;;;;;17.70;94.78;99897.00;5017247;28;20294;-78
2022/08/18 04:04:07;;;;;;;58.90;23.60;;;;;;;17.86;93.52;99899.41;5034611;28;20148;-78
2022/08/18 04:06:38;;;;;;;59.05;23.75;;;;;;;17.74;93.99;99906.06;5034746;28;20033;-78
2022/08/18 04:09:05;;;;;;;57.42;22.73;;;;;;;17.66;94.54;99896.19;5034597;28;20373;-78
2022/08/18 04:11:32;;;;;;;48.67;20.13;;;;;;;17.50;94.96;99904.75;5034656;28;20025;-77
2022/08/18 04:13:57;;;;;;;46.50;18.58;;;;;;;17.58;94.54;99903.59;5035079;28;20063;-78
2022/08/18 04:16:27;;;;;;;44.80;18.45;;;;;;;17.50;94.93;99904.75;5034778;28;20076;-78
2022/08/18 04:18:55;;;;;;;44.35;19.17;;;;;;;17.75;92.98;99907.63;5034599;28;20049;-78
2022/08/18 04:21:22;;;;;;;39.92;19.30;;;;;;;17.71;94.32;99915.88;5034675;28;20027;-77
2022/08/18 04:23:47;;;;;;;43.85;19.33;;;;;;;17.61;94.70;99907.53;5034272;28;20025;-77
2022/08/18 04:26:13;;;;;;;41.92;19.88;;;;;;;17.51;95.45;99913.81;5034364;28;20032;-78
2022/08/18 04:28:41;;;;;;;;;;;;;;;17.55;95.59;99909.09;5034901;28;20444;-78
2022/08/18 04:31:09;;;;;;;44.88;18.75;;;;;;;17.69;95.07;99909.19;5034054;28;20405;-78
2022/08/18 04:33:35;;;;;;;45.17;17.95;;;;;;;17.59;94.88;99907.94;5034470;28;20033;-78
2022/08/18 04:36:11;;;;;;;44.08;17.77;;;;;;;17.83;93.56;99911.22;5034513;28;20091;-77
2022/08/18 04:38:37;;;;;;;43.70;18.15;;;;;;;17.58;95.40;99911.88;5034332;28;20114;-79
2022/08/18 04:41:03;;;;;;;44.65;18.42;;;;;;;17.84;93.13;99907.28;5034010;28;20041;-79
2022/08/18 04:43:29;;;;;;;43.13;19.25;;;;;;;17.62;94.42;99900.84;5034285;28;20353;-78
2022/08/18 04:46:00;;;;;;;50.60;18.60;;;;;;;17.55;95.47;99900.84;5034405;28;20136;-79
2022/08/18 04:48:26;;;;;;;39.50;17.25;;;;;;;17.48;94.99;99907.13;5033923;28;20115;-79
2022/08/18 04:50:53;;;;;;;41.92;17.98;;;;;;;17.56;95.57;99902.41;5035368;28;20142;-81
2022/08/18 04:56:03;;;;;;;40.28;19.08;;;;;;;17.99;93.02;99906.16;5033993;28;20044;-79
2022/08/18 04:58:28;;;;;;;43.38;18.30;;;;;;;18.11;91.79;99905.75;5033898;28;20445;-79
2022/08/18 05:00:58;;;;;;;;;;;;;;;18.11;91.97;99904.97;5034508;28;20051;-79
2022/08/18 05:03:25;;;;;;;44.35;18.77;;;;;;;17.95;92.29;99913.59;5016774;28;20016;-80
2022/08/18 05:05:54;;;;;;;42.90;19.02;;;;;;;17.82;92.89;99921.44;5033434;28;20127;-79
2022/08/18 05:08:21;;;;;;;41.53;17.75;;;;;;;18.04;93.35;99916.78;5033429;28;20095;-81
2022/08/18 05:10:47;;;;;;;36.58;17.35;;;;;;;17.92;93.29;99925.41;5033319;28;20037;-79
2022/08/18 05:13:17;;;;;;;40.45;18.02;;;;;;;18.03;92.59;99929.78;5033214;28;20092;-80
2022/08/18 05:15:42;;;;;;;42.72;18.00;;;;;;;17.89;92.80;99931.69;5033147;28;20498;-79
2022/08/18 05:18:08;;;;;;;41.10;17.02;;;;;;;17.96;92.59;99940.75;5015259;28;20029;-79
2022/08/18 05:20:36;;;;;;;41.78;18.10;;;;;;;17.84;92.90;99940.34;5032716;28;20040;-80
2022/08/18 05:23:01;;;;;;;39.63;18.20;;;;;;;18.01;92.02;99945.13;5033017;28;20520;-79
2022/08/18 05:25:28;;;;;;;38.30;16.58;;;;;;;18.01;92.15;99947.88;5032802;28;20113;-79
2022/08/18 05:27:53;;;;;;;35.42;16.90;;;;;;;18.26;91.25;99934.16;5032952;28;20034;-78
2022/08/18 05:30:18;;;;;;;32.78;15.88;;;;;;;18.18;92.27;99944.38;5033340;28;20034;-79
2022/08/18 05:32:46;;;;;;;40.75;17.38;;;;;;;18.18;91.38;99946.34;5033061;28;20061;-79
2022/08/18 05:35:15;;;;;;;40.28;18.50;;;;;;;18.30;91.08;99941.22;5032916;28;20033;-80
2022/08/18 05:38:19;;;;;;;39.03;17.00;;;;;;;18.40;90.75;99947.94;5015086;28;20412;-80
2022/08/18 05:40:45;;;;;;;36.80;16.15;;;;;;;18.49;90.25;99947.59;5030160;28;20052;-80
2022/08/18 05:43:14;;;;;;;39.33;16.98;;;;;;;18.50;90.51;99949.16;5032583;28;20021;-81
2022/08/18 05:45:40;;;;;;;41.92;16.25;;;;;;;18.55;89.28;99952.31;5032660;28;20036;-80
2022/08/18 05:48:05;;;;;;;38.40;17.30;;;;;;;18.58;90.26;99945.22;5032464;28;20100;-81
2022/08/18 05:50:35;;;;;;;44.33;18.92;;;;;;;18.66;89.87;99944.09;5032322;28;20045;-81
2022/08/18 05:53:06;;;;;;;45.35;19.60;;;;;;;18.71;88.98;99945.66;5032531;28;20033;-81
2022/08/18 05:58:31;;;;;;;41.70;18.23;;;;;;;18.62;89.22;99948.75;5032199;28;20040;-80
2022/08/18 06:01:04;;;;;;;43.25;19.27;;;;;;;18.59;90.12;99955.84;5032256;28;20068;-80
2022/08/18 06:03:43;;;;;;;43.55;19.38;;;;;;;18.50;90.18;99957.44;5031523;28;20061;-81
2022/08/18 06:06:18;;;;;;;40.35;18.33;;;;;;;18.53;90.57;99962.16;5032588;28;20025;-81
2022/08/18 06:09:10;;;;;;;41.22;19.35;;;;;;;18.58;90.17;99961.75;5032335;28;20103;-80
2022/08/18 06:11:36;;;;;;;39.92;17.65;;;;;;;18.84;88.44;99966.94;5032412;28;20463;-80
2022/08/18 06:14:01;;;;;;;42.95;19.35;;;;;;;18.93;89.07;99956.28;5032050;28;20030;-81
2022/08/18 06:16:35;;;;;;;;;;;;;;;19.02;87.80;99957.88;5032753;28;20112;-82
2022/08/18 06:19:21;;;;;;;43.50;19.00;;;;;;;18.94;88.93;99971.66;5031959;28;20201;-80
2022/08/18 06:21:46;;;;;;;41.60;19.60;;;;;;;18.86;88.79;99975.59;5032166;28;20178;-80
2022/08/18 06:24:28;;;;;;;41.97;17.93;;;;;;;18.61;89.60;99969.25;5031734;28;20129;-79
2022/08/18 06:27:08;;;;;;;42.17;19.48;;;;;;;18.60;90.01;99973.19;5032127;28;20271;-79
2022/08/18 06:30:03;;;;;;;46.05;19.67;;;;;;;18.42;90.95;99975.91;5032082;28;20441;-79
2022/08/18 06:32:40;;;;;;;43.45;17.63;;;;;;;18.49;91.05;99981.47;5032229;28;20548;-80
2022/08/18 06:35:16;;;;;;;46.72;20.15;;;;;;;18.49;90.75;99991.69;5032065;28;20060;-81
2022/08/18 06:41:21;;;;;;;49.95;19.90;;;;;;;18.41;91.29;99995.59;5009370;28;20087;-80
2022/08/18 06:44:01;;;;;;;45.35;20.23;;;;;;;18.52;91.19;100004.69;5031826;28;20033;-81
2022/08/18 06:47:05;;;;;;;49.28;21.45;;;;;;;18.26;92.20;100003.81;5014187;28;20104;-80
2022/08/18 06:49:55;;;;;;;43.33;19.15;;;;;;;18.44;92.26;100008.59;5031866;28;20041;-80
2022/08/18 06:52:25;;;;;;;48.78;20.10;;;;;;;18.22;93.69;100013.28;5031563;28;20131;-80
2022/08/18 06:54:51;;;;;;;49.17;20.38;;;;;;;18.16;94.48;100006.56;5031865;28;20457;-80
2022/08/18 06:57:26;;;;;;;52.42;19.95;;;;;;;18.29;94.31;100010.53;5031601;28;20392;-80
2022/08/18 06:59:58;;;;;;;51.42;20.67;;;;;;;18.33;94.32;100005.84;5033208;28;20037;-80
2022/08/18 07:02:46;;;;;;;45.63;19.13;;;;;;;18.12;94.51;100011.25;5033033;28;20479;-79
2022/08/18 07:05:19;;;;;;;40.75;17.38;;;;;;;18.29;94.22;100018.78;5032748;28;20057;-79
2022/08/18 07:07:45;;;;;;;41.30;18.20;;;;;;;18.22;94.18;100010.50;5031904;28;20121;-81
2022/08/18 07:10:13;;;;;;;44.42;18.95;;;;;;;18.16;95.72;100009.31;5031419;28;20133;-81
2022/08/18 07:12:39;;;;;;;41.33;17.63;;;;;;;18.29;94.68;100011.31;5031379;28;20069;-82
2022/08/18 07:15:06;;;;;;;45.70;19.33;;;;;;;18.34;93.96;100016.47;5032707;28;20030;-81
2022/08/18 07:17:39;;;;;;;35.60;16.63;;;;;;;18.56;92.73;100011.00;5035507;28;20032;-80
2022/08/18 07:20:19;;;;;;;40.80;18.08;;;;;;;18.59;93.15;100019.28;5035228;28;20029;-80
2022/08/18 07:22:53;;;;;;;35.65;17.17;;;;;;;18.55;92.68;100006.66;5035245;28;20076;-80
2022/08/18 07:25:24;;;;;;;42.88;16.77;;;;;;;18.70;92.23;100013.81;5016539;28;20030;-81
2022/08/18 07:27:51;;;;;;;37.63;17.65;;;;;;;18.67;92.83;100019.34;5017092;28;20464;-79
2022/08/18 07:30:18;;;;;;;33.95;16.52;;;;;;;18.67;92.84;100009.09;5017167;28;20176;-80
2022/08/18 07:33:10;;;;;;;34.47;16.98;;;;;;;18.66;92.47;100003.97;5035027;28;20140;-81
2022/08/18 07:35:47;;;;;;;34.63;15.55;;;;;;;18.50;93.33;100010.59;5017137;28;20080;-80
2022/08/18 07:38:30;;;;;;;35.22;15.07;;;;;;;18.61;92.87;100007.84;5034356;28;20040;-78
2022/08/18 07:41:19;;;;;;;31.55;16.58;;;;;;;18.47;93.58;100002.31;5034951;28;20037;-80
2022/08/18 07:44:15;;;;;;;38.35;17.95;;;;;;;18.65;93.04;100002.41;5034690;28;20091;-79
2022/08/18 07:46:46;;;;;;;38.03;17.33;;;;;;;18.66;93.36;100007.50;5034472;28;20033;-80
2022/08/18 07:49:19;;;;;;;39.78;18.05;;;;;;;18.69;92.24;99995.69;5034370;28;20049;-78
2022/08/18 07:51:52;;;;;;;36.63;16.52;;;;;;;18.73;93.54;99998.44;5035121;28;20375;-80
2022/08/18 07:54:29;;;;;;;34.20;16.65;;;;;;;19.00;92.43;99996.13;5016622;28;20044;-80
2022/08/18 07:57:07;;;;;;;35.10;17.27;;;;;;;19.05;91.34;99984.66;5034540;28;20032;-80
2022/08/18 07:59:35;;;;;;;41.10;18.33;;;;;;;19.10;91.32;99992.53;5034765;28;20132;-78
2022/08/18 08:02:46;;;;;;;34.42;17.35;;;;;;;18.99;91.63;99983.50;5016605;28;20321;-78
2022/08/18 08:05:34;;;;;;;34.33;14.52;;;;;;;19.21;90.66;99993.34;5003419;28;20044;-79
2022/08/18 08:08:16;;;;;;;34.08;16.02;;;;;;;19.22;90.19;99987.41;5016669;28;20064;-78
2022/08/18 08:11:20;;;;;;;33.60;16.25;;;;;;;19.18;90.46;99988.59;5034557;28;20036;-79
2022/08/18 08:14:06;;;;;;;37.10;17.05;;;;;;;19.08;90.64;99997.66;5030714;28;20072;-78
2022/08/18 08:16:48;;;;;;;31.75;16.25;;;;;;;19.20;90.44;99998.06;5034279;28;20107;-78
2022/08/18 08:19:32;;;;;;;33.85;16.15;;;;;;;19.14;90.05;100001.59;5016592;28;20029;-79
2022/08/18 08:22:19;;;;;;;31.70;16.25;;;;;;;19.25;89.79;99991.34;5016443;28;20463;-79
2022/08/18 08:24:53;;;;;;;;;;;;;;;19.35;88.94;99998.06;5034687;28;20025;-79
2022/08/18 08:27:50;;;;;;;31.90;15.40;;;;;;;19.33;89.11;100009.50;5033546;28;19939;-79
2022/08/18 08:30:19;;;;;;;31.80;15.02;;;;;;;19.27;89.41;100008.31;5016267;28;20069;-78
2022/08/18 08:33:11;;;;;;;33.88;16.25;;;;;;;19.25;89.38;100018.94;5034315;28;20037;-79
2022/08/18 08:35:47;;;;;;;29.95;15.15;;;;;;;19.17;89.67;100014.63;5033919;28;20048;-79
2022/08/18 08:38:23;;;;;;;34.63;17.10;;;;;;;19.02;89.96;100016.59;5016276;28;20026;-79
2022/08/18 08:41:13;;;;;;;34.65;15.57;;;;;;;19.09;89.67;100013.03;5033762;28;20165;-79
2022/08/18 08:43:47;;;;;;;31.70;15.65;;;;;;;19.17;89.60;100007.16;5033725;28;20029;-79
2022/08/18 08:46:35;;;;;;;34.35;17.13;;;;;;;19.36;88.90;100007.91;5034937;28;20373;-79
2022/08/18 08:49:08;;;;;;;27.50;14.40;;;;;;;19.47;88.10;100005.91;5016398;28;20052;-79
2022/08/18 08:51:43;;;;;;;30.48;15.80;;;;;;;19.32;88.53;100007.13;5033600;28;20483;-80
2022/08/18 08:54:40;;;;;;;30.35;15.43;;;;;;;19.35;88.00;100015.41;5033755;28;20034;-79
2022/08/18 08:57:17;;;;;;;31.08;14.20;;;;;;;19.60;87.28;100017.34;4980091;28;20046;-81
2022/08/18 08:59:46;;;;;;;32.80;16.60;;;;;;;19.42;88.05;100023.66;5033495;28;20029;-81
2022/08/18 09:02:32;;;;;;;34.42;16.30;;;;;;;19.25;88.49;100027.22;5033953;28;20041;-81
2022/08/18 09:05:16;;;;;;;31.83;14.80;;;;;;;19.28;88.85;100031.16;5033193;28;20066;-79
2022/08/18 09:08:10;;;;;;;29.02;14.90;;;;;;;19.41;87.94;100035.91;5033547;28;20036;-78
2022/08/18 09:11:20;;;;;;;30.17;15.68;;;;;;;19.50;87.49;100036.28;5033339;28;20021;-78
2022/08/18 09:13:51;;;;;;;28.77;14.52;;;;;;;19.60;87.22;100020.13;5002717;28;20045;-77
2022/08/18 09:16:59;;;;;;;32.60;15.82;;;;;;;19.55;86.89;100026.84;5016410;28;20036;-81
2022/08/18 09:19:58;;;;;;;29.77;15.00;;;;;;;19.77;86.28;100030.34;5015393;28;20033;-81
2022/08/18 09:22:46;;;;;;;29.88;14.60;;;;;;;19.91;84.72;100022.00;5032982;28;20472;-80
2022/08/18 09:25:32;;;;;;;29.02;15.52;;;;;;;19.97;85.01;100031.44;5033771;28;20432;-78
2022/08/18 09:28:12;;;;;;;29.08;15.68;;;;;;;19.93;84.68;100021.59;5014979;28;20329;-78
2022/08/18 09:30:50;;;;;;;30.48;15.90;;;;;;;20.09;83.68;100014.44;5033211;28;20025;-78
2022/08/18 09:33:37;;;;;;;25.58;14.32;;;;;;;20.17;83.00;100019.94;5032551;28;20483;-76
2022/08/18 09:36:14;;;;;;;26.75;14.40;;;;;;;20.23;83.04;100015.56;5033065;28;20025;-76
2022/08/18 09:41:47;;;;;;;26.33;14.32;;;;;;;20.28;82.57;100017.91;5032551;28;20083;-76
2022/08/18 09:44:33;;;;;;;28.17;15.57;;;;;;;20.12;82.88;100019.16;5032816;28;20031;-79
2022/08/18 09:46:59;;;;;;;27.55;15.88;;;;;;;20.25;82.48;100013.19;5032378;28;20029;-77
2022/08/18 09:49:25;;;;;;;36.38;15.13;;;;;;;20.22;82.17;100017.53;5032366;28;20096;-77
2022/08/18 09:51:58;;;;;;;25.48;13.85;;;;;;;20.26;81.59;100012.78;5032342;28;20113;-75
2022/08/18 09:54:30;;;;;;;28.95;14.25;;;;;;;20.31;82.10;100028.16;5032206;28;20065;-76
2022/08/18 09:57:17;;;;;;;23.08;12.73;;;;;;;20.43;81.44;100027.72;5032337;28;20051;-80
2022/08/18 09:59:46;;;;;;;22.80;12.70;;;;;;;20.39;80.32;100024.16;5032127;28;20052;-78
2022/08/18 10:02:32;;;;;;;21.10;12.25;;;;;;;20.58;79.97;100017.38;5032332;28;20060;-78
2022/08/18 10:05:18;;;;;;;21.00;11.77;;;;;;;20.60;78.73;100026.06;4991620;28;20474;-82
2022/08/18 10:07:47;;;;;;;;;;;;;;;20.72;78.59;100023.59;5032903;28;20117;-77
2022/08/18 10:10:30;;;;;;;21.90;11.43;;;;;;;20.75;77.42;100026.75;5032422;28;19913;-78
2022/08/18 10:13:44;;;;;;;21.98;11.90;;;;;;;20.59;77.95;100025.25;5032009;28;20044;-78
2022/08/18 10:16:18;;;;;;;22.10;11.75;;;;;;;20.71;77.43;100016.50;4932603;29;20039;-78
2022/08/18 10:19:21;;;;;;;24.08;13.43;;;;;;;20.88;77.21;100025.88;5017248;28;20042;-78
2022/08/18 10:21:58;;;;;;;22.35;12.10;;;;;;;20.94;76.83;100027.00;5019571;28;20538;-80
2022/08/18 10:24:45;;;;;;;21.65;11.75;;;;;;;21.09;76.37;100019.38;5032360;28;20029;-78
2022/08/18 10:27:36;;;;;;;21.23;13.07;;;;;;;21.14;75.53;100018.13;5032200;28;20463;-78
2022/08/18 10:30:03;;;;;;;22.63;13.45;;;;;;;21.11;74.88;100025.28;5032003;28;20026;-77
2022/08/18 10:32:48;;;;;;;22.48;13.25;;;;;;;21.41;72.91;100012.78;5031931;28;20029;-77
2022/08/18 10:35:32;;;;;;;28.45;15.15;;;;;;;21.20;72.89;100016.53;5031938;28;20033;-79
2022/08/18 10:38:01;;;;;;;28.83;15.02;;;;;;;21.25;72.54;100016.09;5032179;28;20065;-79
2022/08/18 10:40:27;;;;;;;26.92;14.80;;;;;;;21.31;72.98;100009.69;5031929;28;20030;-79
2022/08/18 10:43:10;;;;;;;31.58;15.80;;;;;;;21.35;72.84;100011.69;5032005;28;20210;-75
2022/08/18 10:45:42;;;;;;;30.50;15.85;;;;;;;21.15;74.09;100009.44;5031667;28;20056;-77
2022/08/18 10:48:29;;;;;;;23.80;13.73;;;;;;;21.40;73.45;100019.53;5032002;28;20419;-82
2022/08/18 10:51:05;;;;;;;25.15;14.15;;;;;;;21.44;73.37;100015.53;5035923;28;20112;-79
2022/08/18 10:53:37;;;;;;;27.52;15.35;;;;;;;21.41;72.91;100013.59;5035682;28;20099;-79
2022/08/18 10:56:32;;;;;;;25.40;14.68;;;;;;;21.36;71.88;100019.56;5035534;28;20376;-78
2022/08/18 10:59:21;;;;;;;33.47;18.42;;;;;;;21.27;71.69;100024.78;5035077;28;20029;-78
2022/08/18 11:02:23;;;;;;;30.15;16.67;;;;;;;21.13;71.56;100013.81;5036173;28;20104;-78
2022/08/18 11:04:50;;;;;;;28.92;17.00;;;;;;;21.18;71.90;100011.41;5007247;28;20041;-77
2022/08/18 11:07:23;;;;;;;29.35;16.15;;;;;;;21.28;71.67;100016.06;5035849;28;20036;-78
2022/08/18 11:09:52;;;;;;;28.83;16.98;;;;;;;21.16;72.46;100012.97;5018315;28;20033;-83
2022/08/18 11:13:02;;;;;;;27.98;15.43;;;;;;;21.24;72.64;100004.25;5035657;28;20132;-78
2022/08/18 11:15:40;;;;;;;26.23;14.57;;;;;;;21.34;71.88;100013.66;4998341;28;20403;-84
2022/08/18 11:18:34;;;;;;;24.67;13.88;;;;;;;21.38;71.64;100003.31;5036391;28;20032;-77
2022/08/18 11:21:23;;;;;;;24.20;14.13;;;;;;;21.41;71.30;99996.19;5035550;28;20084;-78
2022/08/18 11:24:14;;;;;;;23.58;13.05;;;;;;;21.41;71.20;99987.88;5035829;28;20029;-78
2022/08/18 11:26:43;;;;;;;24.02;12.82;;;;;;;21.39;70.77;99988.28;5035871;28;20030;-77
2022/08/18 11:29:17;;;;;;;21.02;12.23;;;;;;;21.24;71.01;99984.03;5017589;28;20033;-77
2022/08/18 11:31:43;;;;;;;22.00;12.43;;;;;;;21.17;71.18;99995.97;5035560;28;20041;-76
2022/08/18 11:34:17;;;;;;;24.90;13.32;;;;;;;21.19;71.61;99995.56;5035474;28;20033;-77
2022/08/18 11:36:52;;;;;;;20.15;11.32;;;;;;;21.11;71.91;99992.06;5035604;28;20057;-78
2022/08/18 11:39:18;;;;;;;20.58;11.57;;;;;;;21.21;72.37;99993.97;5035051;28;20037;-77
2022/08/18 11:41:44;;;;;;;18.15;11.13;;;;;;;21.29;71.44;99992.72;5016830;28;20099;-76
2022/08/18 11:44:18;;;;;;;17.08;9.40;;;;;;;21.28;71.62;99993.91;5034535;28;20029;-77
2022/08/18 11:46:43;;;;;;;14.85;8.70;;;;;;;21.25;71.53;99991.19;5034570;28;20034;-76
2022/08/18 11:49:32;;;;;;;14.27;9.00;;;;;;;21.17;71.98;99989.66;5016599;28;20480;-76
2022/08/18 11:52:22;;;;;;;12.57;6.07;;;;;;;21.21;72.25;99979.34;5034687;28;20037;-76
2022/08/18 11:54:48;;;;;;;9.95;5.95;;;;;;;21.13;72.42;99975.81;5016621;28;20048;-77
2022/08/18 11:57:53;;;;;;;11.18;5.65;;;;;;;21.10;72.57;99982.19;5034343;28;20095;-76
2022/08/18 12:00:47;;;;;;;9.88;6.13;;;;;;;21.16;72.73;99990.81;4993657;28;20125;-78
2022/08/18 12:03:18;;;;;;;9.95;5.68;;;;;;;21.31;72.25;99981.22;5034677;28;20041;-76
2022/08/18 12:05:57;;;;;;;7.80;4.85;;;;;;;21.42;72.34;99992.22;5034359;28;20072;-77
2022/08/18 12:08:35;;;;;;;9.43;5.38;;;;;;;21.36;71.84;99991.88;5034338;28;20159;-77
2022/08/18 12:11:04;;;;;;;9.50;5.72;;;;;;;21.38;71.80;99995.03;5034711;28;20032;-78